Weather at Asheville Regional Airport

Public forecast

Using degrees Fahrenheit for public forecast. Weather courtesy of forecast.io.

Current aviation weather report (METAR) for Asheville Regional Airport

Retrieved 2020/09/24 22:54 UTC (49 minutes ago):

KAVL 242254Z 00000KT 10SM BKN032 OVC095 16/14 A3010 RMK AO2 RAE34 SLP178 P0001 T01560139

Aviation forecast (TAF) for Asheville Regional Airport

Retrieved 2020/09/24 18:39 UTC (5 hours ago):

TAF KAVL 241737Z 2418/2518 12005KT 6SM -SHRA OVC060 TEMPO 2419/2423 5SM -SHRA BR BKN025 OVC050 FM250000 02004KT 5SM SHRA BR SCT015 OVC029 FM250400 00000KT 3SM SHRA BR OVC007 FM251200 16005KT 3SM -SHRA BR BKN004 FM251500 23006KT 6SM BR VCSH OVC006